sensor_id;sensor_type;location;lat;lon;timestamp;temperature;humidity
7814;DHT22;3952;48.364;16.022;2022-07-17T00:02:09;15.50;99.90
7814;DHT22;3952;48.364;16.022;2022-07-17T00:04:36;15.40;99.90
7814;DHT22;3952;48.364;16.022;2022-07-17T00:07:04;15.40;99.90
7814;DHT22;3952;48.364;16.022;2022-07-17T00:09:32;15.30;99.90
7814;DHT22;3952;48.364;16.022;2022-07-17T00:12:00;15.30;99.90
7814;DHT22;3952;48.364;16.022;2022-07-17T00:14:27;15.20;99.90
7814;DHT22;3952;48.364;16.022;2022-07-17T00:16:54;15.00;99.90
7814;DHT22;3952;48.364;16.022;2022-07-17T00:19:23;15.00;99.90
7814;DHT22;3952;48.364;16.022;2022-07-17T00:21:51;15.00;99.90
7814;DHT22;3952;48.364;16.022;2022-07-17T00:24:18;15.00;99.90
7814;DHT22;3952;48.364;16.022;2022-07-17T00:26:48;15.10;99.90
7814;DHT22;3952;48.364;16.022;2022-07-17T00:29:16;15.00;99.90
7814;DHT22;3952;48.364;16.022;2022-07-17T00:31:44;14.90;99.90
7814;DHT22;3952;48.364;16.022;2022-07-17T00:34:11;14.90;99.90
7814;DHT22;3952;48.364;16.022;2022-07-17T00:36:39;15.00;99.90
7814;DHT22;3952;48.364;16.022;2022-07-17T00:39:06;15.00;99.90
7814;DHT22;3952;48.364;16.022;2022-07-17T00:41:34;15.00;99.90
7814;DHT22;3952;48.364;16.022;2022-07-17T00:44:08;15.00;99.90
7814;DHT22;3952;48.364;16.022;2022-07-17T00:46:36;15.00;99.90
7814;DHT22;3952;48.364;16.022;2022-07-17T00:49:04;14.90;99.90
7814;DHT22;3952;48.364;16.022;2022-07-17T00:51:32;14.90;99.90
7814;DHT22;3952;48.364;16.022;2022-07-17T00:53:59;14.80;99.90
7814;DHT22;3952;48.364;16.022;2022-07-17T00:56:28;14.70;99.90
7814;DHT22;3952;48.364;16.022;2022-07-17T00:58:56;14.70;99.90
7814;DHT22;3952;48.364;16.022;2022-07-17T01:01:24;14.70;99.90
7814;DHT22;3952;48.364;16.022;2022-07-17T01:03:51;14.70;99.90
7814;DHT22;3952;48.364;16.022;2022-07-17T01:06:19;14.60;99.90
7814;DHT22;3952;48.364;16.022;2022-07-17T01:08:46;14.60;99.90
7814;DHT22;3952;48.364;16.022;2022-07-17T01:11:13;14.60;99.90
7814;DHT22;3952;48.364;16.022;2022-07-17T01:13:41;14.50;99.90
7814;DHT22;3952;48.364;16.022;2022-07-17T01:16:09;14.40;99.90
7814;DHT22;3952;48.364;16.022;2022-07-17T01:18:38;14.50;99.90
7814;DHT22;3952;48.364;16.022;2022-07-17T01:21:07;14.50;99.90
7814;DHT22;3952;48.364;16.022;2022-07-17T01:23:35;14.40;99.90
7814;DHT22;3952;48.364;16.022;2022-07-17T01:26:02;14.40;99.90
7814;DHT22;3952;48.364;16.022;2022-07-17T01:28:29;14.30;99.90
7814;DHT22;3952;48.364;16.022;2022-07-17T01:30:57;14.30;99.90
7814;DHT22;3952;48.364;16.022;2022-07-17T01:33:27;14.30;99.90
7814;DHT22;3952;48.364;16.022;2022-07-17T01:35:54;14.30;99.90
7814;DHT22;3952;48.364;16.022;2022-07-17T01:38:23;14.30;99.90
7814;DHT22;3952;48.364;16.022;2022-07-17T01:40:50;14.30;99.90
7814;DHT22;3952;48.364;16.022;2022-07-17T01:43:18;14.30;99.90
7814;DHT22;3952;48.364;16.022;2022-07-17T01:45:45;14.20;99.90
7814;DHT22;3952;48.364;16.022;2022-07-17T01:48:23;14.10;99.90
7814;DHT22;3952;48.364;16.022;2022-07-17T01:50:50;14.10;99.90
7814;DHT22;3952;48.364;16.022;2022-07-17T01:53:18;14.00;99.90
7814;DHT22;3952;48.364;16.022;2022-07-17T01:55:47;14.00;99.90
7814;DHT22;3952;48.364;16.022;2022-07-17T01:58:14;14.00;99.90
7814;DHT22;3952;48.364;16.022;2022-07-17T02:00:43;14.00;99.90
7814;DHT22;3952;48.364;16.022;2022-07-17T02:03:10;14.00;99.90
7814;DHT22;3952;48.364;16.022;2022-07-17T02:05:37;13.90;99.90
7814;DHT22;3952;48.364;16.022;2022-07-17T02:08:05;13.90;99.90
7814;DHT22;3952;48.364;16.022;2022-07-17T02:10:32;13.80;99.90
7814;DHT22;3952;48.364;16.022;2022-07-17T02:13:01;13.80;99.90
7814;DHT22;3952;48.364;16.022;2022-07-17T02:15:29;13.80;99.90
7814;DHT22;3952;48.364;16.022;2022-07-17T02:17:57;13.80;99.90
7814;DHT22;3952;48.364;16.022;2022-07-17T02:20:24;13.80;99.90
7814;DHT22;3952;48.364;16.022;2022-07-17T02:22:52;13.80;99.90
7814;DHT22;3952;48.364;16.022;2022-07-17T02:25:20;13.80;99.90
7814;DHT22;3952;48.364;16.022;2022-07-17T02:27:47;13.70;99.90
7814;DHT22;3952;48.364;16.022;2022-07-17T02:30:17;13.60;99.90
7814;DHT22;3952;48.364;16.022;2022-07-17T02:32:45;13.50;99.90
7814;DHT22;3952;48.364;16.022;2022-07-17T02:35:13;13.50;99.90
7814;DHT22;3952;48.364;16.022;2022-07-17T02:37:40;13.40;99.90
7814;DHT22;3952;48.364;16.022;2022-07-17T02:40:10;13.40;99.90
7814;DHT22;3952;48.364;16.022;2022-07-17T02:42:37;13.30;99.90
7814;DHT22;3952;48.364;16.022;2022-07-17T02:45:06;13.30;99.90
7814;DHT22;3952;48.364;16.022;2022-07-17T02:47:35;13.30;99.90
7814;DHT22;3952;48.364;16.022;2022-07-17T02:50:05;13.30;99.90
7814;DHT22;3952;48.364;16.022;2022-07-17T02:52:33;13.30;99.90
7814;DHT22;3952;48.364;16.022;2022-07-17T02:55:00;13.30;99.90
7814;DHT22;3952;48.364;16.022;2022-07-17T02:57:28;13.30;99.90
7814;DHT22;3952;48.364;16.022;2022-07-17T02:59:55;13.30;99.90
7814;DHT22;3952;48.364;16.022;2022-07-17T03:02:22;13.20;99.90
7814;DHT22;3952;48.364;16.022;2022-07-17T03:04:51;13.20;99.90
7814;DHT22;3952;48.364;16.022;2022-07-17T03:07:18;13.20;99.90
7814;DHT22;3952;48.364;16.022;2022-07-17T03:09:45;13.20;99.90
7814;DHT22;3952;48.364;16.022;2022-07-17T03:12:12;13.20;99.90
7814;DHT22;3952;48.364;16.022;2022-07-17T03:14:39;13.10;99.90
7814;DHT22;3952;48.364;16.022;2022-07-17T03:17:07;13.10;99.90
7814;DHT22;3952;48.364;16.022;2022-07-17T03:19:35;13.10;99.90
7814;DHT22;3952;48.364;16.022;2022-07-17T03:22:03;13.00;99.90
7814;DHT22;3952;48.364;16.022;2022-07-17T03:24:31;13.00;99.90
7814;DHT22;3952;48.364;16.022;2022-07-17T03:26:58;12.90;99.90
7814;DHT22;3952;48.364;16.022;2022-07-17T03:29:26;12.90;99.90
7814;DHT22;3952;48.364;16.022;2022-07-17T03:31:53;12.90;99.90
7814;DHT22;3952;48.364;16.022;2022-07-17T03:34:20;12.90;99.90
7814;DHT22;3952;48.364;16.022;2022-07-17T03:36:47;12.90;99.90
7814;DHT22;3952;48.364;16.022;2022-07-17T03:39:16;12.90;99.90
7814;DHT22;3952;48.364;16.022;2022-07-17T03:41:43;12.80;99.90
7814;DHT22;3952;48.364;16.022;2022-07-17T03:44:11;12.70;99.90
7814;DHT22;3952;48.364;16.022;2022-07-17T03:46:38;12.70;99.90
7814;DHT22;3952;48.364;16.022;2022-07-17T03:49:05;12.70;99.90
7814;DHT22;3952;48.364;16.022;2022-07-17T03:51:32;12.70;99.90
7814;DHT22;3952;48.364;16.022;2022-07-17T03:54:00;12.70;99.90
7814;DHT22;3952;48.364;16.022;2022-07-17T03:56:28;12.70;99.90
7814;DHT22;3952;48.364;16.022;2022-07-17T03:58:56;12.70;99.90
7814;DHT22;3952;48.364;16.022;2022-07-17T04:01:23;12.70;99.90
7814;DHT22;3952;48.364;16.022;2022-07-17T04:03:50;12.70;99.90
7814;DHT22;3952;48.364;16.022;2022-07-17T04:06:18;12.80;99.90
7814;DHT22;3952;48.364;16.022;2022-07-17T04:08:45;12.80;99.90
7814;DHT22;3952;48.364;16.022;2022-07-17T04:11:12;12.80;99.90
7814;DHT22;3952;48.364;16.022;2022-07-17T04:13:40;12.90;99.90
7814;DHT22;3952;48.364;16.022;2022-07-17T04:16:08;12.90;99.90
7814;DHT22;3952;48.364;16.022;2022-07-17T04:18:36;13.00;99.90
7814;DHT22;3952;48.364;16.022;2022-07-17T04:21:05;13.00;99.90
7814;DHT22;3952;48.364;16.022;2022-07-17T04:23:33;13.10;99.90
7814;DHT22;3952;48.364;16.022;2022-07-17T04:26:01;13.20;99.90
7814;DHT22;3952;48.364;16.022;2022-07-17T04:28:28;13.20;99.90
7814;DHT22;3952;48.364;16.022;2022-07-17T04:30:56;13.30;99.90
7814;DHT22;3952;48.364;16.022;2022-07-17T04:33:24;13.40;99.90
7814;DHT22;3952;48.364;16.022;2022-07-17T04:35:51;13.50;99.90
7814;DHT22;3952;48.364;16.022;2022-07-17T04:38:19;13.80;99.90
7814;DHT22;3952;48.364;16.022;2022-07-17T04:40:46;14.20;99.90
7814;DHT22;3952;48.364;16.022;2022-07-17T04:43:13;14.70;99.90
7814;DHT22;3952;48.364;16.022;2022-07-17T04:45:40;15.00;99.90
7814;DHT22;3952;48.364;16.022;2022-07-17T04:48:09;15.10;99.90
7814;DHT22;3952;48.364;16.022;2022-07-17T04:50:36;15.10;99.90
7814;DHT22;3952;48.364;16.022;2022-07-17T04:53:04;15.10;99.90
7814;DHT22;3952;48.364;16.022;2022-07-17T04:55:31;15.10;99.90
7814;DHT22;3952;48.364;16.022;2022-07-17T04:57:58;15.10;99.90
7814;DHT22;3952;48.364;16.022;2022-07-17T05:00:25;15.00;99.90
7814;DHT22;3952;48.364;16.022;2022-07-17T05:02:53;15.10;99.90
7814;DHT22;3952;48.364;16.022;2022-07-17T05:05:22;15.10;99.90
7814;DHT22;3952;48.364;16.022;2022-07-17T05:07:49;15.10;99.90
7814;DHT22;3952;48.364;16.022;2022-07-17T05:10:16;15.10;99.90
7814;DHT22;3952;48.364;16.022;2022-07-17T05:12:44;15.10;99.90
7814;DHT22;3952;48.364;16.022;2022-07-17T05:15:11;15.20;99.90
7814;DHT22;3952;48.364;16.022;2022-07-17T05:17:39;15.20;99.90
7814;DHT22;3952;48.364;16.022;2022-07-17T05:20:07;15.20;99.90
7814;DHT22;3952;48.364;16.022;2022-07-17T05:22:36;15.30;99.90
7814;DHT22;3952;48.364;16.022;2022-07-17T05:25:05;15.30;99.90
7814;DHT22;3952;48.364;16.022;2022-07-17T05:27:32;15.30;99.90
7814;DHT22;3952;48.364;16.022;2022-07-17T05:29:59;15.40;99.90
7814;DHT22;3952;48.364;16.022;2022-07-17T05:32:27;15.40;99.90
7814;DHT22;3952;48.364;16.022;2022-07-17T05:34:54;15.50;99.90
7814;DHT22;3952;48.364;16.022;2022-07-17T05:37:21;15.50;99.90
7814;DHT22;3952;48.364;16.022;2022-07-17T05:39:50;15.60;99.90
7814;DHT22;3952;48.364;16.022;2022-07-17T05:42:17;15.60;99.90
7814;DHT22;3952;48.364;16.022;2022-07-17T05:44:44;15.70;99.90
7814;DHT22;3952;48.364;16.022;2022-07-17T05:47:11;15.80;99.90
7814;DHT22;3952;48.364;16.022;2022-07-17T05:49:39;15.90;99.90
7814;DHT22;3952;48.364;16.022;2022-07-17T05:52:06;16.00;99.90
7814;DHT22;3952;48.364;16.022;2022-07-17T05:54:33;16.10;99.90
7814;DHT22;3952;48.364;16.022;2022-07-17T05:57:02;16.20;99.90
7814;DHT22;3952;48.364;16.022;2022-07-17T05:59:30;16.30;99.90
7814;DHT22;3952;48.364;16.022;2022-07-17T06:01:57;16.40;99.90
7814;DHT22;3952;48.364;16.022;2022-07-17T06:04:24;16.50;99.90
7814;DHT22;3952;48.364;16.022;2022-07-17T06:06:51;16.60;99.90
7814;DHT22;3952;48.364;16.022;2022-07-17T06:09:19;16.70;99.90
7814;DHT22;3952;48.364;16.022;2022-07-17T06:11:46;16.80;99.90
7814;DHT22;3952;48.364;16.022;2022-07-17T06:14:15;16.80;99.90
7814;DHT22;3952;48.364;16.022;2022-07-17T06:16:43;17.00;99.90
7814;DHT22;3952;48.364;16.022;2022-07-17T06:19:10;17.10;99.90
7814;DHT22;3952;48.364;16.022;2022-07-17T06:21:37;17.20;99.90
7814;DHT22;3952;48.364;16.022;2022-07-17T06:24:05;17.30;99.90
7814;DHT22;3952;48.364;16.022;2022-07-17T06:26:32;17.40;99.90
7814;DHT22;3952;48.364;16.022;2022-07-17T06:28:59;17.60;99.90
7814;DHT22;3952;48.364;16.022;2022-07-17T06:31:28;17.70;99.90
7814;DHT22;3952;48.364;16.022;2022-07-17T06:33:55;17.80;99.90
7814;DHT22;3952;48.364;16.022;2022-07-17T06:36:22;17.90;99.90
7814;DHT22;3952;48.364;16.022;2022-07-17T06:38:50;18.10;99.90
7814;DHT22;3952;48.364;16.022;2022-07-17T06:41:17;18.20;99.90
7814;DHT22;3952;48.364;16.022;2022-07-17T06:43:44;18.30;99.90
7814;DHT22;3952;48.364;16.022;2022-07-17T06:46:11;18.50;99.90
7814;DHT22;3952;48.364;16.022;2022-07-17T06:48:40;18.60;99.90
7814;DHT22;3952;48.364;16.022;2022-07-17T06:51:07;18.70;99.90
7814;DHT22;3952;48.364;16.022;2022-07-17T06:53:34;18.90;99.90
7814;DHT22;3952;48.364;16.022;2022-07-17T06:56:02;19.00;99.90
7814;DHT22;3952;48.364;16.022;2022-07-17T06:58:29;19.20;99.90
7814;DHT22;3952;48.364;16.022;2022-07-17T07:00:56;19.30;99.90
7814;DHT22;3952;48.364;16.022;2022-07-17T07:03:24;19.40;99.90
7814;DHT22;3952;48.364;16.022;2022-07-17T07:05:52;19.50;99.90
7814;DHT22;3952;48.364;16.022;2022-07-17T07:08:20;19.60;99.90
7814;DHT22;3952;48.364;16.022;2022-07-17T07:10:48;19.70;99.90
7814;DHT22;3952;48.364;16.022;2022-07-17T07:13:15;19.80;99.90
7814;DHT22;3952;48.364;16.022;2022-07-17T07:15:42;20.00;99.90
7814;DHT22;3952;48.364;16.022;2022-07-17T07:18:09;20.00;99.90
7814;DHT22;3952;48.364;16.022;2022-07-17T07:20:37;20.20;99.90
7814;DHT22;3952;48.364;16.022;2022-07-17T07:23:05;20.30;99.90
7814;DHT22;3952;48.364;16.022;2022-07-17T07:25:33;20.40;99.90
7814;DHT22;3952;48.364;16.022;2022-07-17T07:28:00;20.60;99.90
7814;DHT22;3952;48.364;16.022;2022-07-17T07:30:27;20.80;99.90
7814;DHT22;3952;48.364;16.022;2022-07-17T07:32:55;20.90;99.90
7814;DHT22;3952;48.364;16.022;2022-07-17T07:35:22;21.00;99.90
7814;DHT22;3952;48.364;16.022;2022-07-17T07:37:50;21.10;99.90
7814;DHT22;3952;48.364;16.022;2022-07-17T07:40:18;21.30;99.90
7814;DHT22;3952;48.364;16.022;2022-07-17T07:42:46;21.40;99.90
7814;DHT22;3952;48.364;16.022;2022-07-17T07:45:13;21.50;99.90
7814;DHT22;3952;48.364;16.022;2022-07-17T07:47:41;21.60;99.90
7814;DHT22;3952;48.364;16.022;2022-07-17T07:50:09;21.70;99.90
7814;DHT22;3952;48.364;16.022;2022-07-17T07:52:38;21.80;99.90
7814;DHT22;3952;48.364;16.022;2022-07-17T07:55:06;21.90;99.90
7814;DHT22;3952;48.364;16.022;2022-07-17T07:57:36;22.00;97.90
7814;DHT22;3952;48.364;16.022;2022-07-17T08:00:04;22.00;94.80
7814;DHT22;3952;48.364;16.022;2022-07-17T08:02:32;22.00;93.50
7814;DHT22;3952;48.364;16.022;2022-07-17T08:04:59;22.00;93.60
7814;DHT22;3952;48.364;16.022;2022-07-17T08:07:27;22.10;94.60
7814;DHT22;3952;48.364;16.022;2022-07-17T08:09:54;22.10;94.40
7814;DHT22;3952;48.364;16.022;2022-07-17T08:12:22;22.20;93.60
7814;DHT22;3952;48.364;16.022;2022-07-17T08:14:51;22.30;94.40
7814;DHT22;3952;48.364;16.022;2022-07-17T08:17:18;22.30;93.60
7814;DHT22;3952;48.364;16.022;2022-07-17T08:19:46;22.40;93.30
7814;DHT22;3952;48.364;16.022;2022-07-17T08:22:13;22.40;93.50
7814;DHT22;3952;48.364;16.022;2022-07-17T08:24:40;22.50;91.70
7814;DHT22;3952;48.364;16.022;2022-07-17T08:27:08;22.70;91.00
7814;DHT22;3952;48.364;16.022;2022-07-17T08:29:35;22.80;91.40
7814;DHT22;3952;48.364;16.022;2022-07-17T08:32:04;22.90;90.60
7814;DHT22;3952;48.364;16.022;2022-07-17T08:34:31;23.00;91.10
7814;DHT22;3952;48.364;16.022;2022-07-17T08:36:59;23.00;91.20
7814;DHT22;3952;48.364;16.022;2022-07-17T08:39:26;23.10;91.90
7814;DHT22;3952;48.364;16.022;2022-07-17T08:41:53;23.20;91.40
7814;DHT22;3952;48.364;16.022;2022-07-17T08:44:21;23.30;91.80
7814;DHT22;3952;48.364;16.022;2022-07-17T08:46:48;23.50;90.00
7814;DHT22;3952;48.364;16.022;2022-07-17T08:49:21;23.60;89.80
7814;DHT22;3952;48.364;16.022;2022-07-17T08:51:49;23.70;90.00
7814;DHT22;3952;48.364;16.022;2022-07-17T08:54:16;23.70;88.00
7814;DHT22;3952;48.364;16.022;2022-07-17T08:56:43;23.70;87.30
7814;DHT22;3952;48.364;16.022;2022-07-17T08:59:10;23.70;84.50
7814;DHT22;3952;48.364;16.022;2022-07-17T09:01:38;23.70;82.50
7814;DHT22;3952;48.364;16.022;2022-07-17T09:04:05;23.60;84.60
7814;DHT22;3952;48.364;16.022;2022-07-17T09:06:36;23.60;88.00
7814;DHT22;3952;48.364;16.022;2022-07-17T09:09:06;23.70;85.20
7814;DHT22;3952;48.364;16.022;2022-07-17T09:11:48;23.70;83.70
7814;DHT22;3952;48.364;16.022;2022-07-17T09:14:17;23.80;87.60
7814;DHT22;3952;48.364;16.022;2022-07-17T09:16:49;23.90;86.70
7814;DHT22;3952;48.364;16.022;2022-07-17T09:19:27;24.10;85.50
7814;DHT22;3952;48.364;16.022;2022-07-17T09:22:06;24.20;85.60
7814;DHT22;3952;48.364;16.022;2022-07-17T09:24:42;24.20;82.20
7814;DHT22;3952;48.364;16.022;2022-07-17T09:27:11;24.20;85.20
7814;DHT22;3952;48.364;16.022;2022-07-17T09:29:53;24.30;82.00
7814;DHT22;3952;48.364;16.022;2022-07-17T09:32:22;24.10;82.30
7814;DHT22;3952;48.364;16.022;2022-07-17T09:34:50;24.10;84.60
7814;DHT22;3952;48.364;16.022;2022-07-17T09:37:22;24.20;83.90
7814;DHT22;3952;48.364;16.022;2022-07-17T09:39:49;24.40;84.50
7814;DHT22;3952;48.364;16.022;2022-07-17T09:42:24;24.50;82.80
7814;DHT22;3952;48.364;16.022;2022-07-17T09:44:57;24.70;84.80
7814;DHT22;3952;48.364;16.022;2022-07-17T09:47:25;24.80;81.40
7814;DHT22;3952;48.364;16.022;2022-07-17T09:49:52;24.80;79.30
7814;DHT22;3952;48.364;16.022;2022-07-17T09:52:23;24.80;79.60
7814;DHT22;3952;48.364;16.022;2022-07-17T09:54:52;24.90;81.20
7814;DHT22;3952;48.364;16.022;2022-07-17T09:57:20;25.00;80.80
7814;DHT22;3952;48.364;16.022;2022-07-17T09:59:53;25.20;80.60
7814;DHT22;3952;48.364;16.022;2022-07-17T10:02:21;25.20;82.30
7814;DHT22;3952;48.364;16.022;2022-07-17T10:04:49;25.30;80.50
7814;DHT22;3952;48.364;16.022;2022-07-17T10:07:16;25.30;78.70
7814;DHT22;3952;48.364;16.022;2022-07-17T10:09:45;25.30;78.30
7814;DHT22;3952;48.364;16.022;2022-07-17T10:12:13;25.30;78.00
7814;DHT22;3952;48.364;16.022;2022-07-17T10:14:42;25.20;78.60
7814;DHT22;3952;48.364;16.022;2022-07-17T10:17:13;25.20;77.40
7814;DHT22;3952;48.364;16.022;2022-07-17T10:19:46;25.00;76.00
7814;DHT22;3952;48.364;16.022;2022-07-17T10:22:15;24.80;75.40
7814;DHT22;3952;48.364;16.022;2022-07-17T10:24:48;24.80;81.30
7814;DHT22;3952;48.364;16.022;2022-07-17T10:27:24;25.00;76.70
7814;DHT22;3952;48.364;16.022;2022-07-17T10:30:01;25.00;77.90
7814;DHT22;3952;48.364;16.022;2022-07-17T10:32:29;25.00;79.50
7814;DHT22;3952;48.364;16.022;2022-07-17T10:34:59;25.20;82.00
7814;DHT22;3952;48.364;16.022;2022-07-17T10:37:31;25.30;78.00
7814;DHT22;3952;48.364;16.022;2022-07-17T10:40:02;25.20;77.60
7814;DHT22;3952;48.364;16.022;2022-07-17T10:42:42;25.10;77.30
7814;DHT22;3952;48.364;16.022;2022-07-17T10:45:11;25.20;77.30
7814;DHT22;3952;48.364;16.022;2022-07-17T10:47:44;25.20;76.10
7814;DHT22;3952;48.364;16.022;2022-07-17T10:50:12;25.30;79.10
7814;DHT22;3952;48.364;16.022;2022-07-17T10:52:40;25.40;78.90
7814;DHT22;3952;48.364;16.022;2022-07-17T10:55:20;25.60;80.40
7814;DHT22;3952;48.364;16.022;2022-07-17T10:57:47;25.70;74.50
7814;DHT22;3952;48.364;16.022;2022-07-17T11:00:15;25.70;78.40
7814;DHT22;3952;48.364;16.022;2022-07-17T11:02:43;25.50;77.10
7814;DHT22;3952;48.364;16.022;2022-07-17T11:05:12;25.50;77.60
7814;DHT22;3952;48.364;16.022;2022-07-17T11:07:55;25.50;76.20
7814;DHT22;3952;48.364;16.022;2022-07-17T11:10:26;25.50;76.00
7814;DHT22;3952;48.364;16.022;2022-07-17T11:12:55;25.50;76.60
7814;DHT22;3952;48.364;16.022;2022-07-17T11:15:22;25.40;77.80
7814;DHT22;3952;48.364;16.022;2022-07-17T11:17:50;25.40;74.50
7814;DHT22;3952;48.364;16.022;2022-07-17T11:20:17;25.40;73.50
7814;DHT22;3952;48.364;16.022;2022-07-17T11:22:44;25.40;75.90
7814;DHT22;3952;48.364;16.022;2022-07-17T11:25:12;25.50;74.70
7814;DHT22;3952;48.364;16.022;2022-07-17T11:27:40;25.60;75.90
7814;DHT22;3952;48.364;16.022;2022-07-17T11:30:11;25.70;76.20
7814;DHT22;3952;48.364;16.022;2022-07-17T11:32:41;25.80;78.00
7814;DHT22;3952;48.364;16.022;2022-07-17T11:35:19;25.90;75.60
7814;DHT22;3952;48.364;16.022;2022-07-17T11:37:48;26.10;77.60
7814;DHT22;3952;48.364;16.022;2022-07-17T11:40:16;26.20;76.80
7814;DHT22;3952;48.364;16.022;2022-07-17T11:42:45;26.30;72.90
7814;DHT22;3952;48.364;16.022;2022-07-17T11:45:12;26.20;73.70
7814;DHT22;3952;48.364;16.022;2022-07-17T11:47:40;26.30;72.00
7814;DHT22;3952;48.364;16.022;2022-07-17T11:50:11;26.30;73.80
7814;DHT22;3952;48.364;16.022;2022-07-17T11:52:43;26.20;73.30
7814;DHT22;3952;48.364;16.022;2022-07-17T11:55:11;26.40;76.10
7814;DHT22;3952;48.364;16.022;2022-07-17T11:57:45;26.30;69.90
7814;DHT22;3952;48.364;16.022;2022-07-17T12:00:15;26.10;70.40
7814;DHT22;3952;48.364;16.022;2022-07-17T12:02:42;26.00;73.20
7814;DHT22;3952;48.364;16.022;2022-07-17T12:05:10;26.10;73.60
7814;DHT22;3952;48.364;16.022;2022-07-17T12:07:42;26.20;72.60
7814;DHT22;3952;48.364;16.022;2022-07-17T12:10:14;26.30;70.90
7814;DHT22;3952;48.364;16.022;2022-07-17T12:12:54;26.40;71.20
7814;DHT22;3952;48.364;16.022;2022-07-17T12:15:33;26.40;69.80
7814;DHT22;3952;48.364;16.022;2022-07-17T12:18:02;26.50;72.20
7814;DHT22;3952;48.364;16.022;2022-07-17T12:20:41;26.60;73.70
7814;DHT22;3952;48.364;16.022;2022-07-17T12:23:09;26.60;71.20
7814;DHT22;3952;48.364;16.022;2022-07-17T12:25:52;26.70;71.70
7814;DHT22;3952;48.364;16.022;2022-07-17T12:28:30;26.80;69.10
7814;DHT22;3952;48.364;16.022;2022-07-17T12:30:58;26.70;69.20
7814;DHT22;3952;48.364;16.022;2022-07-17T12:33:25;26.60;70.00
7814;DHT22;3952;48.364;16.022;2022-07-17T12:35:52;26.50;69.50
7814;DHT22;3952;48.364;16.022;2022-07-17T12:38:19;26.50;70.20
7814;DHT22;3952;48.364;16.022;2022-07-17T12:40:47;26.50;69.50
7814;DHT22;3952;48.364;16.022;2022-07-17T12:43:14;26.50;68.60
7814;DHT22;3952;48.364;16.022;2022-07-17T12:45:43;26.50;68.80
7814;DHT22;3952;48.364;16.022;2022-07-17T12:48:10;26.60;72.30
7814;DHT22;3952;48.364;16.022;2022-07-17T12:50:37;26.70;70.50
7814;DHT22;3952;48.364;16.022;2022-07-17T12:53:05;26.80;72.40
7814;DHT22;3952;48.364;16.022;2022-07-17T12:55:32;26.90;69.00
7814;DHT22;3952;48.364;16.022;2022-07-17T12:57:59;26.90;66.90
7814;DHT22;3952;48.364;16.022;2022-07-17T13:00:26;26.90;68.90
7814;DHT22;3952;48.364;16.022;2022-07-17T13:02:56;26.90;70.40
7814;DHT22;3952;48.364;16.022;2022-07-17T13:05:23;26.90;67.00
7814;DHT22;3952;48.364;16.022;2022-07-17T13:07:51;26.70;67.70
7814;DHT22;3952;48.364;16.022;2022-07-17T13:10:18;26.60;67.20
7814;DHT22;3952;48.364;16.022;2022-07-17T13:12:45;26.60;70.80
7814;DHT22;3952;48.364;16.022;2022-07-17T13:15:12;26.60;70.70
7814;DHT22;3952;48.364;16.022;2022-07-17T13:17:40;26.70;69.00
7814;DHT22;3952;48.364;16.022;2022-07-17T13:20:11;26.70;71.30
7814;DHT22;3952;48.364;16.022;2022-07-17T13:22:39;26.80;70.70
7814;DHT22;3952;48.364;16.022;2022-07-17T13:25:08;26.90;70.00
7814;DHT22;3952;48.364;16.022;2022-07-17T13:27:35;26.90;68.20
7814;DHT22;3952;48.364;16.022;2022-07-17T13:30:03;26.90;67.90
7814;DHT22;3952;48.364;16.022;2022-07-17T13:32:30;27.00;67.60
7814;DHT22;3952;48.364;16.022;2022-07-17T13:34:57;27.00;67.10
7814;DHT22;3952;48.364;16.022;2022-07-17T13:37:27;27.00;68.40
7814;DHT22;3952;48.364;16.022;2022-07-17T13:39:54;27.00;67.80
7814;DHT22;3952;48.364;16.022;2022-07-17T13:42:21;27.00;67.80
7814;DHT22;3952;48.364;16.022;2022-07-17T13:44:48;27.00;66.40
7814;DHT22;3952;48.364;16.022;2022-07-17T13:47:16;26.90;64.90
7814;DHT22;3952;48.364;16.022;2022-07-17T13:49:43;26.90;65.90
7814;DHT22;3952;48.364;16.022;2022-07-17T13:52:10;27.00;71.90
7814;DHT22;3952;48.364;16.022;2022-07-17T13:54:39;27.00;68.30
7814;DHT22;3952;48.364;16.022;2022-07-17T13:57:06;27.00;69.30
7814;DHT22;3952;48.364;16.022;2022-07-17T13:59:33;27.00;70.30
7814;DHT22;3952;48.364;16.022;2022-07-17T14:02:01;27.10;68.40
7814;DHT22;3952;48.364;16.022;2022-07-17T14:04:28;27.10;69.30
7814;DHT22;3952;48.364;16.022;2022-07-17T14:06:55;27.20;69.20
7814;DHT22;3952;48.364;16.022;2022-07-17T14:09:22;27.10;66.20
7814;DHT22;3952;48.364;16.022;2022-07-17T14:11:53;27.20;66.40
7814;DHT22;3952;48.364;16.022;2022-07-17T14:14:20;27.20;67.30
7814;DHT22;3952;48.364;16.022;2022-07-17T14:16:48;27.20;67.30
7814;DHT22;3952;48.364;16.022;2022-07-17T14:19:15;27.20;66.60
7814;DHT22;3952;48.364;16.022;2022-07-17T14:21:42;27.20;66.00
7814;DHT22;3952;48.364;16.022;2022-07-17T14:24:11;27.20;63.60
7814;DHT22;3952;48.364;16.022;2022-07-17T14:26:38;27.00;64.00
7814;DHT22;3952;48.364;16.022;2022-07-17T14:29:10;26.90;66.40
7814;DHT22;3952;48.364;16.022;2022-07-17T14:31:37;26.90;67.80
7814;DHT22;3952;48.364;16.022;2022-07-17T14:34:04;27.00;65.50
7814;DHT22;3952;48.364;16.022;2022-07-17T14:36:32;27.00;64.80
7814;DHT22;3952;48.364;16.022;2022-07-17T14:38:59;27.00;66.70
7814;DHT22;3952;48.364;16.022;2022-07-17T14:41:26;27.00;64.00
7814;DHT22;3952;48.364;16.022;2022-07-17T14:43:53;27.00;65.10
7814;DHT22;3952;48.364;16.022;2022-07-17T14:46:22;27.00;65.80
7814;DHT22;3952;48.364;16.022;2022-07-17T14:48:49;27.00;66.60
7814;DHT22;3952;48.364;16.022;2022-07-17T14:51:17;27.10;68.00
7814;DHT22;3952;48.364;16.022;2022-07-17T14:53:44;27.10;63.70
7814;DHT22;3952;48.364;16.022;2022-07-17T14:56:11;27.00;68.10
7814;DHT22;3952;48.364;16.022;2022-07-17T14:58:38;27.00;65.30
7814;DHT22;3952;48.364;16.022;2022-07-17T15:01:06;26.90;65.50
7814;DHT22;3952;48.364;16.022;2022-07-17T15:03:35;26.90;67.50
7814;DHT22;3952;48.364;16.022;2022-07-17T15:06:03;27.00;67.00
7814;DHT22;3952;48.364;16.022;2022-07-17T15:08:30;27.00;66.60
7814;DHT22;3952;48.364;16.022;2022-07-17T15:10:58;27.10;66.20
7814;DHT22;3952;48.364;16.022;2022-07-17T15:13:25;27.10;66.40
7814;DHT22;3952;48.364;16.022;2022-07-17T15:15:52;27.10;65.20
7814;DHT22;3952;48.364;16.022;2022-07-17T15:18:20;27.20;68.30
7814;DHT22;3952;48.364;16.022;2022-07-17T15:20:48;27.20;66.00
7814;DHT22;3952;48.364;16.022;2022-07-17T15:23:15;27.30;66.30
7814;DHT22;3952;48.364;16.022;2022-07-17T15:25:43;27.30;63.30
7814;DHT22;3952;48.364;16.022;2022-07-17T15:28:10;27.20;64.70
7814;DHT22;3952;48.364;16.022;2022-07-17T15:30:38;27.20;65.10
7814;DHT22;3952;48.364;16.022;2022-07-17T15:33:05;27.20;64.80
7814;DHT22;3952;48.364;16.022;2022-07-17T15:35:32;27.20;64.10
7814;DHT22;3952;48.364;16.022;2022-07-17T15:38:01;27.10;64.30
7814;DHT22;3952;48.364;16.022;2022-07-17T15:40:29;27.00;63.30
7814;DHT22;3952;48.364;16.022;2022-07-17T15:42:56;27.00;62.40
7814;DHT22;3952;48.364;16.022;2022-07-17T15:45:23;27.00;64.10
7814;DHT22;3952;48.364;16.022;2022-07-17T15:47:50;27.00;64.30
7814;DHT22;3952;48.364;16.022;2022-07-17T15:50:20;27.00;65.60
7814;DHT22;3952;48.364;16.022;2022-07-17T15:52:47;26.90;65.20